Time;durP1;ratioP1;P1;durP2;ratioP2;P2;SDS_P1;SDS_P2;PMS_P1;PMS_P2;Temp;Humidity;BMP_temperature;BMP_pressure;BME280_temperature;BME280_humidity;BME280_pressure;Samples;Min_cycle;Max_cycle;Signal;HPM_P1;HPM_P2
2023/12/28 02:26:29;;;;;;;3.03;1.45;;;;;;;34.67;35.57;97722.97;7428869;19;20321;-61
2023/12/28 02:28:55;;;;;;;1.15;0.60;;;;;;;31.90;33.49;97735.09;7435908;19;20028;-61
2023/12/28 02:31:28;;;;;;;1.75;1.65;;;;;;;35.24;31.10;97736.25;7430526;19;20018;-61
2023/12/28 02:34:09;;;;;;;2.10;0.50;;;;;;;36.39;29.77;97724.06;7429428;19;20006;-61
2023/12/28 02:36:37;;;;;;;4.43;1.65;;;;;;;32.44;31.68;97733.03;7429454;19;20014;-61
2023/12/28 02:39:05;;;;;;;0.47;0.40;;;;;;;24.72;44.06;97742.16;7428338;19;20078;-60
2023/12/28 02:41:32;;;;;;;0.90;0.20;;;;;;;23.80;48.16;97752.31;7429610;19;20011;-60
2023/12/28 02:43:59;;;;;;;1.58;0.80;;;;;;;22.71;53.22;97758.84;7430276;19;20046;-60
2023/12/28 02:46:25;;;;;;;0.32;0.32;;;;;;;32.55;37.02;97721.09;7430610;19;20450;-60
2023/12/28 02:48:52;;;;;;;2.10;0.43;;;;;;;26.11;43.13;97758.47;7431870;19;20014;-60
2023/12/28 02:51:18;;;;;;;0.60;0.38;;;;;;;23.33;49.46;97767.84;7426904;19;20345;-60
2023/12/28 02:53:45;;;;;;;2.17;0.50;;;;;;;22.01;54.35;97779.56;7428675;19;20484;-60
2023/12/28 02:56:11;;;;;;;8.45;0.45;;;;;;;23.20;52.63;97780.50;7430653;19;20382;-60
2023/12/28 02:58:37;;;;;;;2.22;1.02;;;;;;;20.25;60.42;97800.78;7432003;19;20006;-60
2023/12/28 03:01:04;;;;;;;3.50;0.70;;;;;;;21.60;63.79;97810.00;7427602;19;20050;-60
2023/12/28 03:03:30;;;;;;;0.17;0.17;;;;;;;22.72;56.59;97805.00;7429859;19;20013;-60
2023/12/28 03:05:56;;;;;;;1.05;1.00;;;;;;;22.80;57.61;97820.47;7428976;19;20017;-60
2023/12/28 03:08:22;;;;;;;0.85;0.75;;;;;;;22.30;57.33;97829.13;7431791;19;20051;-60
2023/12/28 03:10:48;;;;;;;1.10;0.40;;;;;;;20.11;67.16;97832.84;7429347;19;20013;-60
2023/12/28 03:13:14;;;;;;;3.67;1.17;;;;;;;19.77;70.96;97855.63;7427553;19;20025;-60
2023/12/28 03:15:40;;;;;;;0.82;0.82;;;;;;;20.68;70.07;97849.97;7426419;19;20458;-59
2023/12/28 03:18:07;;;;;;;1.65;1.00;;;;;;;19.80;69.80;97865.72;7428960;19;20011;-60
2023/12/28 03:20:33;;;;;;;3.50;1.33;;;;;;;19.40;73.60;97863.28;7429293;19;20018;-60
2023/12/28 03:22:59;;;;;;;7.32;1.23;;;;;;;19.24;72.74;97868.34;7426633;19;20031;-60
2023/12/28 03:25:25;;;;;;;1.25;0.30;;;;;;;19.54;73.41;97873.63;7422465;19;20066;-60
2023/12/28 03:27:51;;;;;;;2.45;1.40;;;;;;;19.37;74.48;97865.19;7400111;19;20018;-60
2023/12/28 03:30:18;;;;;;;0.80;0.80;;;;;;;21.11;68.62;97862.41;7399635;19;20013;-60
2023/12/28 03:32:44;;;;;;;0.35;0.35;;;;;;;22.56;60.57;97879.16;7400164;19;20019;-59
2023/12/28 03:35:10;;;;;;;8.60;1.75;;;;;;;22.83;58.26;97872.41;7396507;19;20014;-59
2023/12/28 03:37:36;;;;;;;5.82;1.20;;;;;;;23.00;57.04;97877.84;7399542;19;20010;-59
2023/12/28 03:40:03;;;;;;;0.73;0.30;;;;;;;22.65;56.69;97874.03;7399009;19;20007;-59
2023/12/28 03:42:29;;;;;;;3.58;0.85;;;;;;;27.32;52.98;97896.06;7400189;19;20017;-59
2023/12/28 03:44:55;;;;;;;1.52;0.47;;;;;;;23.12;52.44;97921.22;7398936;19;20014;-59
2023/12/28 03:47:23;;;;;;;6.97;1.00;;;;;;;22.12;57.20;97927.09;7398977;19;20050;-59
2023/12/28 03:49:49;;;;;;;1.55;0.45;;;;;;;22.32;57.59;97925.69;7399424;19;20433;-59
2023/12/28 03:52:15;;;;;;;3.70;1.05;;;;;;;12.81;100.00;97944.63;7399352;19;20010;-60
2023/12/28 03:54:41;;;;;;;10.55;0.57;;;;;;;11.79;100.00;97941.81;7395950;19;20386;-59
2023/12/28 03:57:07;;;;;;;0.17;0.10;;;;;;;21.34;80.31;97936.31;7401977;19;20039;-59
2023/12/28 03:59:33;;;;;;;3.75;0.47;;;;;;;21.97;72.08;97932.38;7398173;19;20014;-59
2023/12/28 04:01:59;;;;;;;10.23;0.52;;;;;;;24.60;55.30;97937.88;7398980;19;20098;-59
2023/12/28 04:04:25;;;;;;;2.40;0.63;;;;;;;22.56;61.55;97955.00;7398387;19;20015;-60
2023/12/28 04:06:51;;;;;;;6.50;0.73;;;;;;;24.23;56.79;97957.66;7398741;19;20015;-60
2023/12/28 04:09:19;;;;;;;2.30;1.27;;;;;;;23.76;56.14;97959.59;7400911;19;20010;-60
2023/12/28 04:11:46;;;;;;;2.47;0.73;;;;;;;22.89;58.05;97972.91;7401726;19;20011;-59
2023/12/28 04:14:12;;;;;;;2.97;1.58;;;;;;;22.25;60.03;97980.50;7396793;19;20022;-59
2023/12/28 04:16:39;;;;;;;6.93;0.43;;;;;;;22.16;59.88;97972.75;7397721;19;20015;-59
2023/12/28 04:19:05;;;;;;;1.30;0.82;;;;;;;22.01;61.38;97973.09;7396810;19;20011;-60
2023/12/28 04:21:32;;;;;;;10.32;1.13;;;;;;;21.65;62.81;97984.59;7399801;19;20549;-59
2023/12/28 04:23:58;;;;;;;10.05;0.65;;;;;;;22.45;60.57;97981.94;7396584;19;20010;-59
2023/12/28 04:26:26;;;;;;;0.30;0.30;;;;;;;22.58;60.10;97975.75;7397917;19;20041;-59
2023/12/28 04:28:52;;;;;;;0.63;0.30;;;;;;;22.60;60.20;97990.13;7396787;19;20454;-59
2023/12/28 04:31:18;;;;;;;5.18;1.48;;;;;;;20.67;65.67;97989.19;7394480;19;20011;-59
2023/12/28 04:33:45;;;;;;;0.40;0.35;;;;;;;20.19;69.56;97995.34;7399295;19;20010;-59
2023/12/28 04:36:11;;;;;;;1.38;0.65;;;;;;;20.00;71.75;98003.72;7394946;19;20027;-59
2023/12/28 04:38:38;;;;;;;1.13;0.77;;;;;;;19.95;73.95;98018.09;7393966;19;20021;-60
2023/12/28 04:41:04;;;;;;;2.85;0.45;;;;;;;20.63;68.74;98015.09;7395919;19;20043;-59
2023/12/28 04:43:31;;;;;;;3.88;0.40;;;;;;;21.41;65.71;98023.22;7394443;19;20088;-60
2023/12/28 04:45:57;;;;;;;10.80;1.23;;;;;;;19.25;75.13;98030.69;7400511;19;20018;-59
2023/12/28 04:48:25;;;;;;;16.35;1.73;;;;;;;18.86;79.92;98034.47;7394804;19;20014;-59
2023/12/28 04:50:52;;;;;;;7.30;1.48;;;;;;;21.51;68.35;98034.53;7396056;19;20010;-59
2023/12/28 04:53:18;;;;;;;2.95;0.30;;;;;;;21.96;64.87;98039.34;7396072;19;20053;-59
2023/12/28 04:55:44;;;;;;;1.80;1.40;;;;;;;22.20;62.83;98046.78;7392746;19;20011;-59
2023/12/28 04:58:12;;;;;;;18.35;1.00;;;;;;;22.19;62.20;98050.22;7396708;19;20028;-59
2023/12/28 05:00:39;;;;;;;5.60;1.30;;;;;;;21.56;63.30;98054.09;7394596;19;20034;-60
2023/12/28 05:03:06;;;;;;;0.63;0.63;;;;;;;21.86;63.05;98064.13;7396885;19;20018;-59
2023/12/28 05:05:32;;;;;;;9.85;0.50;;;;;;;21.94;62.17;98053.38;7395092;19;20047;-59
2023/12/28 05:07:59;;;;;;;0.80;0.20;;;;;;;22.04;61.39;98059.03;7398087;19;20019;-59
2023/12/28 05:10:25;;;;;;;0.60;0.17;;;;;;;22.27;60.82;98057.22;7396996;19;20015;-59
2023/12/28 05:12:51;;;;;;;0.77;0.73;;;;;;;22.35;60.29;98052.13;7394465;19;20002;-59
2023/12/28 05:15:19;;;;;;;1.15;1.00;;;;;;;23.34;57.29;98045.66;7395706;19;20454;-59
2023/12/28 05:17:45;;;;;;;0.68;0.30;;;;;;;23.18;56.60;98046.59;7398482;19;20074;-59
2023/12/28 05:20:11;;;;;;;2.50;0.75;;;;;;;21.90;59.80;98036.06;7394678;19;20466;-59
2023/12/28 05:22:38;;;;;;;1.65;0.43;;;;;;;21.86;60.33;98038.59;7394048;19;20455;-59
2023/12/28 05:25:04;;;;;;;0.30;0.30;;;;;;;21.56;61.60;98036.34;7395494;19;20049;-59
2023/12/28 05:27:30;;;;;;;0.60;0.25;;;;;;;21.52;62.14;98033.22;7399307;19;20367;-59
2023/12/28 05:29:56;;;;;;;4.30;1.00;;;;;;;21.97;59.89;98034.41;7398138;19;20094;-59
2023/12/28 05:32:22;;;;;;;7.88;1.85;;;;;;;23.88;54.20;98045.69;7394793;19;20025;-59
2023/12/28 05:34:50;;;;;;;8.63;0.65;;;;;;;23.32;58.52;98042.63;7395067;19;20040;-59
2023/12/28 05:37:16;;;;;;;1.33;0.82;;;;;;;21.20;60.14;98056.25;7393365;19;20494;-59
2023/12/28 05:39:42;;;;;;;0.60;0.60;;;;;;;22.06;60.34;98059.94;7394631;19;20343;-59
2023/12/28 05:42:08;;;;;;;0.95;0.38;;;;;;;28.38;50.54;98063.72;7397860;19;20023;-59
2023/12/28 05:44:34;;;;;;;0.43;0.32;;;;;;;20.60;61.40;98081.31;7395008;19;20022;-59
2023/12/28 05:47:00;;;;;;;3.00;1.25;;;;;;;20.81;64.43;98084.38;7394285;19;20066;-59
2023/12/28 05:49:28;;;;;;;1.73;0.85;;;;;;;21.51;62.68;98085.53;7393471;19;20011;-59
2023/12/28 05:51:54;;;;;;;7.20;0.82;;;;;;;21.90;60.26;98081.41;7393875;19;20462;-59
2023/12/28 05:54:20;;;;;;;2.17;0.90;;;;;;;22.11;59.97;98083.66;7397525;19;20019;-59
2023/12/28 05:56:46;;;;;;;0.40;0.40;;;;;;;24.17;54.15;98093.81;7396619;19;20011;-59
2023/12/28 05:59:12;;;;;;;3.28;0.50;;;;;;;21.34;58.67;98099.81;7392617;19;20019;-59
2023/12/28 06:01:43;;;;;;;1.85;0.45;;;;;;;22.20;58.97;98097.81;7393448;19;20014;-59
2023/12/28 06:04:09;;;;;;;1.65;0.68;;;;;;;25.03;55.63;98095.78;7392950;19;20019;-59
2023/12/28 06:06:36;;;;;;;7.63;0.65;;;;;;;23.16;54.80;98100.41;7396321;19;20007;-59
2023/12/28 06:09:03;;;;;;;4.53;0.80;;;;;;;24.43;53.92;98100.47;7393240;19;20018;-59
2023/12/28 06:11:30;;;;;;;1.98;0.45;;;;;;;22.95;54.77;98106.06;7395569;19;20014;-60
2023/12/28 06:13:56;;;;;;;9.40;1.75;;;;;;;26.02;46.08;98104.59;7394250;19;20011;-59
2023/12/28 06:16:22;;;;;;;0.98;0.43;;;;;;;30.29;43.46;98085.97;7393501;19;20354;-59
2023/12/28 06:18:49;;;;;;;3.13;0.60;;;;;;;34.37;33.46;98083.75;7397860;19;20025;-59
2023/12/28 06:21:15;;;;;;;7.88;0.30;;;;;;;34.77;31.22;98084.72;7393875;19;20018;-59
2023/12/28 06:23:42;;;;;;;0.77;0.77;;;;;;;33.76;31.47;98087.94;7393924;19;20450;-59
2023/12/28 06:26:08;;;;;;;1.65;0.90;;;;;;;35.02;29.58;98087.50;7395674;19;20014;-59
2023/12/28 06:28:34;;;;;;;0.10;0.10;;;;;;;31.10;33.30;98101.44;7395122;19;20015;-59
2023/12/28 06:31:00;;;;;;;5.70;0.75;;;;;;;34.53;29.22;98102.25;7392827;19;20018;-59
2023/12/28 06:33:28;;;;;;;20.38;0.93;;;;;;;35.20;28.37;98110.31;7391936;19;20108;-60
2023/12/28 06:35:55;;;;;;;7.18;0.65;;;;;;;35.27;27.77;98114.09;7390319;19;20006;-59
2023/12/28 06:38:21;;;;;;;2.17;0.32;;;;;;;35.52;27.42;98116.81;7394465;19;20387;-59
2023/12/28 06:40:47;;;;;;;9.75;1.30;;;;;;;35.77;27.36;98112.97;7392969;19;20010;-59
2023/12/28 06:43:13;;;;;;;0.55;0.47;;;;;;;35.86;26.94;98110.97;7392314;19;20370;-59
2023/12/28 06:45:39;;;;;;;10.23;1.65;;;;;;;36.46;26.58;98114.25;7392833;19;20018;-59
2023/12/28 06:48:05;;;;;;;0.77;0.70;;;;;;;35.72;26.82;98108.53;7394902;19;20026;-59
2023/12/28 06:50:31;;;;;;;0.38;0.38;;;;;;;35.96;26.60;98102.50;7393550;19;20057;-59
2023/12/28 06:52:57;;;;;;;0.38;0.22;;;;;;;35.95;26.64;98083.66;7393076;19;20021;-59
2023/12/28 06:55:23;;;;;;;9.30;0.75;;;;;;;36.33;26.29;98072.69;7391950;19;20073;-59
2023/12/28 06:57:50;;;;;;;1.27;0.45;;;;;;;36.29;26.07;98071.91;7393179;19;20059;-59
2023/12/28 07:00:17;;;;;;;0.85;0.73;;;;;;;36.06;25.95;98087.47;7392526;19;20100;-59
2023/12/28 07:02:43;;;;;;;0.38;0.32;;;;;;;36.03;25.99;98085.94;7402837;19;20105;-59
2023/12/28 07:05:09;;;;;;;0.10;0.10;;;;;;;35.94;26.04;98095.88;7402932;19;20070;-60
2023/12/28 07:07:36;;;;;;;2.47;1.00;;;;;;;35.89;26.18;98100.88;7400094;19;20018;-59
2023/12/28 07:10:03;;;;;;;3.25;1.35;;;;;;;36.01;26.44;98109.09;7399479;19;20013;-60
2023/12/28 07:12:29;;;;;;;0.43;0.43;;;;;;;36.06;26.49;98108.47;7403840;19;20037;-60
2023/12/28 07:14:55;;;;;;;15.57;0.77;;;;;;;35.99;26.53;98089.50;7398241;19;20023;-59
2023/12/28 07:17:22;;;;;;;0.65;0.35;;;;;;;35.93;26.20;98111.81;7399448;19;20332;-59
2023/12/28 07:19:48;;;;;;;15.40;1.02;;;;;;;36.27;26.07;98124.06;7399176;19;20153;-59
2023/12/28 07:22:14;;;;;;;0.25;0.25;;;;;;;35.95;26.33;98137.94;7399888;19;20011;-60
2023/12/28 07:24:40;;;;;;;10.50;0.52;;;;;;;35.64;26.68;98151.84;7399925;19;20010;-60
2023/12/28 07:27:06;;;;;;;0.75;0.32;;;;;;;35.88;26.60;98139.25;7401337;19;20499;-60
2023/12/28 07:29:32;;;;;;;1.17;0.30;;;;;;;35.37;26.40;98138.19;7398907;19;20018;-60
2023/12/28 07:31:58;;;;;;;3.83;0.90;;;;;;;35.45;26.26;98137.63;7399940;19;20017;-60
2023/12/28 07:34:24;;;;;;;2.65;0.85;;;;;;;35.96;26.00;98130.72;7398918;19;20458;-61
2023/12/28 07:36:50;;;;;;;1.13;0.25;;;;;;;35.41;26.14;98126.69;7398138;19;20014;-61
2023/12/28 07:39:17;;;;;;;9.77;1.38;;;;;;;32.35;29.21;98143.41;7402333;19;20023;-60
2023/12/28 07:41:43;;;;;;;0.20;0.20;;;;;;;34.92;27.01;98129.91;7398718;19;20495;-61
2023/12/28 07:44:09;;;;;;;0.10;0.10;;;;;;;24.93;36.70;98154.94;7399232;19;20010;-60
2023/12/28 07:46:35;;;;;;;4.95;0.30;;;;;;;26.81;37.11;98141.28;7398780;19;20086;-60
2023/12/28 07:49:01;;;;;;;0.10;0.10;;;;;;;33.72;29.44;98139.81;7402232;19;20017;-60
2023/12/28 07:51:27;;;;;;;0.95;0.47;;;;;;;34.51;29.71;98144.84;7399004;19;20053;-60
2023/12/28 07:53:53;;;;;;;0.10;0.10;;;;;;;34.96;30.12;98139.44;7397547;19;20014;-60
2023/12/28 07:56:19;;;;;;;0.20;0.20;;;;;;;35.32;29.97;98148.22;7402152;19;20399;-60
2023/12/28 07:58:45;;;;;;;0.10;0.00;;;;;;;35.49;29.81;98158.75;7401185;19;20020;-60
2023/12/28 08:01:12;;;;;;;0.85;0.40;;;;;;;35.90;29.86;98140.03;7398648;19;20015;-60
2023/12/28 08:03:38;;;;;;;2.50;0.28;;;;;;;35.73;29.95;98136.09;7398183;19;20033;-61
2023/12/28 08:06:04;;;;;;;0.70;0.30;;;;;;;35.48;30.41;98139.16;7398155;19;20029;-61
2023/12/28 08:08:31;;;;;;;0.75;0.22;;;;;;;36.02;30.06;98128.69;7401078;19;20017;-60
2023/12/28 08:10:57;;;;;;;9.38;0.73;;;;;;;29.15;38.09;98136.91;7399389;19;20006;-61
2023/12/28 08:13:23;;;;;;;1.85;0.90;;;;;;;29.47;36.94;98138.41;7397030;19;20036;-60
2023/12/28 08:15:50;;;;;;;0.32;0.10;;;;;;;23.06;48.49;98157.28;7395534;19;20019;-60
2023/12/28 08:18:16;;;;;;;0.10;0.00;;;;;;;18.35;90.00;98163.88;7399172;19;20018;-61
2023/12/28 08:20:42;;;;;;;0.60;0.60;;;;;;;17.14;100.00;98178.13;7397756;19;20014;-60
2023/12/28 08:23:08;;;;;;;3.65;0.82;;;;;;;17.70;99.57;98169.31;7397720;19;20011;-60
2023/12/28 08:25:34;;;;;;;0.20;0.20;;;;;;;16.77;100.00;98173.16;7398587;19;20011;-60
2023/12/28 08:28:00;;;;;;;0.10;0.00;;;;;;;17.34;100.00;98180.75;7398469;19;20074;-60
2023/12/28 08:30:27;;;;;;;0.20;0.20;;;;;;;18.78;99.49;98183.25;7397266;19;20022;-60
2023/12/28 08:32:53;;;;;;;12.40;0.75;;;;;;;17.07;100.00;98187.28;7396980;19;20006;-60
2023/12/28 08:35:19;;;;;;;0.10;0.10;;;;;;;11.80;100.00;98195.06;7395559;19;20018;-60
2023/12/28 08:37:45;;;;;;;0.20;0.20;;;;;;;8.00;100.00;98210.50;7396252;19;20014;-60
2023/12/28 08:40:12;;;;;;;0.10;0.10;;;;;;;7.10;100.00;98218.03;7397051;19;20432;-60
2023/12/28 08:42:38;;;;;;;5.57;0.50;;;;;;;6.76;100.00;98225.28;7396625;19;20086;-60
2023/12/28 08:45:05;;;;;;;0.90;0.30;;;;;;;16.78;100.00;98202.78;7396357;19;20458;-60
2023/12/28 08:47:31;;;;;;;0.40;0.30;;;;;;;15.45;100.00;98226.16;7396493;19;20023;-60
2023/12/28 08:49:57;;;;;;;0.10;0.10;;;;;;;16.25;100.00;98211.72;7395744;19;20015;-60
2023/12/28 08:52:23;;;;;;;0.10;0.00;;;;;;;16.02;100.00;98213.69;7395620;19;20332;-60
2023/12/28 08:54:49;;;;;;;1.40;0.70;;;;;;;15.84;100.00;98211.88;7395770;19;20079;-60
2023/12/28 08:57:15;;;;;;;0.20;0.20;;;;;;;17.50;100.00;98206.84;7398855;19;20026;-60
2023/12/28 08:59:41;;;;;;;0.10;0.10;;;;;;;17.67;100.00;98209.84;7396602;19;20023;-61
2023/12/28 09:02:08;;;;;;;3.40;0.20;;;;;;;17.71;100.00;98198.22;7395611;19;20078;-60
2023/12/28 09:04:34;;;;;;;0.10;0.00;;;;;;;17.52;100.00;98201.41;7395984;19;20358;-60
2023/12/28 09:07:00;;;;;;;0.10;0.08;;;;;;;27.03;83.90;98186.13;7396449;19;20037;-60
2023/12/28 09:09:27;;;;;;;0.93;0.60;;;;;;;18.40;100.00;98196.75;7401601;19;20021;-60
2023/12/28 09:11:53;;;;;;;0.30;0.30;;;;;;;17.86;100.00;98201.78;7400114;19;20461;-60
2023/12/28 09:14:19;;;;;;;0.50;0.25;;;;;;;17.64;100.00;98193.34;7396286;19;20455;-60
2023/12/28 09:16:46;;;;;;;0.82;0.38;;;;;;;17.39;100.00;98196.69;7396210;19;20011;-60
2023/12/28 09:19:12;;;;;;;0.50;0.20;;;;;;;17.92;100.00;98196.69;7400088;19;20018;-60
2023/12/28 09:21:38;;;;;;;1.20;0.98;;;;;;;18.24;100.00;98198.09;7395464;19;20013;-60
2023/12/28 09:24:05;;;;;;;6.65;2.17;;;;;;;27.09;61.89;98177.16;7394742;19;20355;-60
2023/12/28 09:26:32;;;;;;;5.57;1.30;;;;;;;24.66;73.19;98189.53;7395113;19;20019;-62
2023/12/28 09:28:58;;;;;;;2.05;0.35;;;;;;;30.77;50.20;98179.94;7399203;19;20490;-60
2023/12/28 09:31:24;;;;;;;4.30;0.60;;;;;;;20.76;87.69;98198.59;7395457;19;20015;-60
2023/12/28 09:33:51;;;;;;;2.75;1.42;;;;;;;18.30;100.00;98202.22;7395780;19;20022;-60
2023/12/28 09:36:17;;;;;;;2.22;0.55;;;;;;;17.24;100.00;98196.69;7396010;19;20018;-60
2023/12/28 09:38:44;;;;;;;24.80;3.13;;;;;;;16.63;100.00;98212.66;7398207;19;20035;-60
2023/12/28 09:41:14;;;;;;;1.38;1.27;;;;;;;16.67;100.00;98209.50;7395478;19;20371;-60
2023/12/28 09:44:05;;;;;;;0.40;0.40;;;;;;;16.50;100.00;98210.00;7395082;19;20343;-60
2023/12/28 09:46:32;;;;;;;6.03;1.15;;;;;;;16.96;100.00;98205.28;7395496;19;20037;-60
2023/12/28 09:48:58;;;;;;;0.95;0.57;;;;;;;16.89;100.00;98199.63;7396856;19;20007;-60
2023/12/28 09:51:28;;;;;;;5.00;1.00;;;;;;;16.79;100.00;98195.84;7394540;19;20023;-60
2023/12/28 09:53:54;;;;;;;3.40;0.22;;;;;;;16.59;100.00;98192.59;7394118;19;20010;-60
2023/12/28 09:56:20;;;;;;;2.33;1.10;;;;;;;16.38;100.00;98185.56;7395789;19;20027;-60
2023/12/28 09:58:50;;;;;;;3.78;1.35;;;;;;;16.23;100.00;98191.88;7397635;19;20022;-60
2023/12/28 10:01:17;;;;;;;0.98;0.30;;;;;;;16.51;100.00;98191.84;7393075;19;20367;-60
2023/12/28 10:03:44;;;;;;;6.75;0.90;;;;;;;16.10;100.00;98203.22;7393999;19;20018;-60
2023/12/28 10:06:10;;;;;;;0.10;0.10;;;;;;;16.04;100.00;98197.03;7393401;19;20470;-60
2023/12/28 10:08:36;;;;;;;9.23;0.90;;;;;;;19.44;100.00;98174.94;7396639;19;20018;-60
2023/12/28 10:11:04;;;;;;;1.10;0.38;;;;;;;24.61;91.71;98176.38;7394736;19;20477;-60
2023/12/28 10:13:34;;;;;;;1.17;0.22;;;;;;;16.10;100.00;98194.81;7394599;19;20011;-60
2023/12/28 10:16:00;;;;;;;1.27;0.55;;;;;;;15.63;100.00;98180.28;7392330;19;20010;-60
2023/12/28 10:18:27;;;;;;;3.17;0.38;;;;;;;15.23;100.00;98181.78;7392521;19;21145;-60
2023/12/28 10:20:54;;;;;;;3.85;0.28;;;;;;;15.07;100.00;98176.06;7396937;19;20082;-60
2023/12/28 10:23:21;;;;;;;3.20;0.80;;;;;;;15.37;100.00;98163.59;7393371;19;20018;-60
2023/12/28 10:25:49;;;;;;;5.15;0.45;;;;;;;15.34;100.00;98171.06;7395155;19;20011;-60
2023/12/28 10:28:18;;;;;;;0.85;0.32;;;;;;;15.18;100.00;98175.78;7392904;19;20031;-60
2023/12/28 10:30:45;;;;;;;4.00;0.65;;;;;;;21.91;100.00;98167.97;7392463;19;20515;-60
2023/12/28 10:33:12;;;;;;;1.55;0.45;;;;;;;18.11;100.00;98159.63;7396980;19;20011;-60
2023/12/28 10:35:38;;;;;;;3.15;1.65;;;;;;;19.84;100.00;98159.88;7392999;19;20047;-60
2023/12/28 10:38:10;;;;;;;2.92;0.28;;;;;;;16.91;100.00;98175.28;7400819;19;20054;-60
2023/12/28 10:40:39;;;;;;;3.15;1.17;;;;;;;21.19;95.26;98156.69;7400209;19;20006;-60
2023/12/28 10:43:13;;;;;;;0.40;0.35;;;;;;;23.96;87.24;98147.84;7400316;19;20007;-60
2023/12/28 10:45:40;;;;;;;2.78;0.68;;;;;;;18.91;100.00;98168.88;7401120;19;20459;-60
2023/12/28 10:48:08;;;;;;;9.02;0.55;;;;;;;18.24;100.00;98145.31;7401498;19;20010;-60
2023/12/28 10:50:42;;;;;;;1.23;0.73;;;;;;;18.14;100.00;98150.81;7401015;19;20548;-60
2023/12/28 10:53:20;;;;;;;7.75;1.42;;;;;;;18.86;100.00;98152.94;7400682;19;20019;-60
2023/12/28 10:55:58;;;;;;;0.25;0.25;;;;;;;17.74;100.00;98141.53;7397959;19;20549;-60
2023/12/28 10:58:40;;;;;;;0.30;0.20;;;;;;;19.57;100.00;98132.28;7400744;19;20018;-60
2023/12/28 11:01:09;;;;;;;6.90;0.30;;;;;;;20.43;100.00;98135.09;7400894;19;20480;-60
2023/12/28 11:03:40;;;;;;;0.20;0.20;;;;;;;18.60;100.00;98128.81;7401010;19;20017;-60
2023/12/28 11:06:08;;;;;;;5.65;1.38;;;;;;;17.65;100.00;98116.75;7400045;19;20021;-60
2023/12/28 11:08:37;;;;;;;16.02;1.48;;;;;;;17.91;100.00;98116.31;7399837;19;20011;-60
2023/12/28 11:11:05;;;;;;;1.25;0.38;;;;;;;18.38;100.00;98112.75;7401210;19;20480;-60
2023/12/28 11:13:32;;;;;;;1.27;0.55;;;;;;;19.04;100.00;98109.34;7400774;19;20015;-60
2023/12/28 11:15:59;;;;;;;0.47;0.10;;;;;;;19.25;100.00;98117.47;7395676;19;20011;-60
2023/12/28 11:18:27;;;;;;;0.10;0.10;;;;;;;17.96;100.00;98106.16;7402593;19;20401;-59
2023/12/28 11:20:54;;;;;;;0.10;0.00;;;;;;;17.88;100.00;98102.63;7399309;19;20086;-60
2023/12/28 11:23:20;;;;;;;1.75;1.08;;;;;;;17.59;100.00;98107.00;7399787;19;20021;-60
2023/12/28 11:25:46;;;;;;;20.08;0.90;;;;;;;17.63;100.00;98088.41;7399374;19;20051;-60
2023/12/28 11:28:14;;;;;;;7.68;1.23;;;;;;;16.90;100.00;98083.78;7398085;19;20022;-60
2023/12/28 11:30:43;;;;;;;5.85;1.15;;;;;;;17.28;100.00;98078.16;7403556;19;20011;-60
2023/12/28 11:33:10;;;;;;;7.43;2.50;;;;;;;17.43;100.00;98069.69;7398915;19;20359;-60
2023/12/28 11:35:39;;;;;;;14.18;2.15;;;;;;;16.60;100.00;98062.03;7397176;19;20018;-60
2023/12/28 11:38:09;;;;;;;8.50;1.88;;;;;;;16.79;100.00;98080.56;7398720;19;20010;-60
2023/12/28 11:40:44;;;;;;;1.35;1.23;;;;;;;16.92;100.00;98069.16;7398586;19;20069;-60
2023/12/28 11:43:20;;;;;;;4.70;0.73;;;;;;;17.96;100.00;98049.81;7398931;19;20110;-60
2023/12/28 11:46:00;;;;;;;7.45;1.33;;;;;;;16.62;100.00;98050.22;7398486;19;20010;-60
2023/12/28 11:48:27;;;;;;;8.27;2.17;;;;;;;16.78;100.00;98048.16;7396210;19;20462;-60
2023/12/28 11:50:59;;;;;;;14.88;1.98;;;;;;;17.02;100.00;98061.66;7399033;19;20033;-60
2023/12/28 11:53:26;;;;;;;0.32;0.32;;;;;;;17.39;100.00;98091.81;7398392;19;20113;-61
2023/12/28 11:55:52;;;;;;;32.78;2.58;;;;;;;17.40;100.00;98099.72;7396117;19;20432;-60
2023/12/28 11:58:19;;;;;;;2.85;1.42;;;;;;;17.48;100.00;98125.00;7396704;19;20030;-61
2023/12/28 12:00:46;;;;;;;1.52;1.02;;;;;;;17.39;100.00;98072.13;7397357;19;20430;-61
2023/12/28 12:03:13;;;;;;;4.18;0.73;;;;;;;17.44;100.00;98037.41;7397991;19;20010;-60
2023/12/28 12:05:39;;;;;;;9.13;1.88;;;;;;;17.79;100.00;98042.03;7398906;19;20462;-61
2023/12/28 12:08:08;;;;;;;3.13;0.98;;;;;;;16.85;100.00;98024.94;7398608;19;20018;-61
2023/12/28 12:10:35;;;;;;;4.95;2.38;;;;;;;19.63;100.00;98022.63;7398645;19;20014;-62
2023/12/28 12:13:02;;;;;;;1.08;0.85;;;;;;;26.05;74.03;97994.94;7398195;19;20034;-61
2023/12/28 12:15:30;;;;;;;0.77;0.63;;;;;;;25.71;74.39;97995.84;7397091;19;20021;-62
2023/12/28 12:17:56;;;;;;;0.43;0.32;;;;;;;22.55;83.02;97991.13;7397284;19;20043;-62
2023/12/28 12:20:23;;;;;;;3.10;0.45;;;;;;;18.62;100.00;98012.66;7397168;19;20548;-62
2023/12/28 12:22:49;;;;;;;0.20;0.10;;;;;;;18.45;100.00;97998.50;7398577;19;20010;-61
2023/12/28 12:25:16;;;;;;;2.25;0.70;;;;;;;18.16;100.00;98006.53;7398031;19;20028;-61
2023/12/28 12:27:42;;;;;;;0.17;0.08;;;;;;;18.06;100.00;98006.41;7402236;19;20010;-62
2023/12/28 12:30:09;;;;;;;0.60;0.43;;;;;;;16.54;100.00;98001.69;7397714;19;20014;-62
2023/12/28 12:32:39;;;;;;;0.28;0.25;;;;;;;16.09;100.00;98002.31;7397564;19;20447;-61
2023/12/28 12:35:06;;;;;;;0.45;0.20;;;;;;;16.67;100.00;97988.19;7396179;19;20395;-61
2023/12/28 12:37:32;;;;;;;0.20;0.20;;;;;;;17.57;100.00;98009.06;7397337;19;20501;-62
2023/12/28 12:39:59;;;;;;;0.15;0.13;;;;;;;20.74;100.00;97994.72;7397189;19;20015;-61
2023/12/28 12:42:25;;;;;;;1.35;0.75;;;;;;;19.50;100.00;97991.91;7395684;19;20783;-61
2023/12/28 12:44:51;;;;;;;1.10;0.57;;;;;;;21.31;96.02;97996.94;7397069;19;20029;-61
2023/12/28 12:47:17;;;;;;;0.40;0.20;;;;;;;17.96;100.00;97977.34;7396914;19;20350;-62
2023/12/28 12:49:44;;;;;;;0.20;0.20;;;;;;;17.17;100.00;97985.72;7397667;19;20023;-62
2023/12/28 12:52:10;;;;;;;3.80;0.57;;;;;;;22.08;90.46;97966.53;7396929;19;20010;-62
2023/12/28 12:54:37;;;;;;;0.10;0.10;;;;;;;20.37;100.00;97962.88;7395797;19;20490;-62
2023/12/28 12:57:04;;;;;;;0.10;0.00;;;;;;;20.70;100.00;97946.34;7399689;19;20365;-62
2023/12/28 12:59:31;;;;;;;1.48;0.43;;;;;;;23.08;82.98;97946.53;7399294;19;20011;-62
2023/12/28 13:01:57;;;;;;;0.10;0.10;;;;;;;20.39;98.69;97931.19;7396719;19;20458;-62
2023/12/28 13:04:23;;;;;;;0.20;0.20;;;;;;;20.44;100.00;97944.31;7396039;19;20011;-62
2023/12/28 13:06:49;;;;;;;0.35;0.10;;;;;;;19.82;100.00;97953.47;7396072;19;20026;-62
2023/12/28 13:09:15;;;;;;;0.10;0.10;;;;;;;19.82;100.00;97953.47;7397205;19;20084;-62
2023/12/28 13:11:42;;;;;;;2.10;0.30;;;;;;;23.56;85.80;97958.31;7399911;19;20459;-62
2023/12/28 13:14:08;;;;;;;0.10;0.10;;;;;;;24.78;83.87;97953.25;7394198;19;20011;-63
2023/12/28 13:16:34;;;;;;;1.33;0.55;;;;;;;24.37;72.19;97958.53;7395403;19;20027;-62
2023/12/28 13:19:00;;;;;;;2.38;0.85;;;;;;;21.89;91.03;97960.91;7395145;19;20006;-62
2023/12/28 13:21:26;;;;;;;0.10;0.00;;;;;;;21.96;95.21;97948.63;7399783;19;20021;-62
2023/12/28 13:23:53;;;;;;;1.35;0.30;;;;;;;22.91;79.27;97939.03;7395953;19;20015;-62
2023/12/28 13:26:19;;;;;;;1.10;0.60;;;;;;;21.86;92.05;97936.56;7397582;19;20014;-62
2023/12/28 13:28:45;;;;;;;3.60;0.90;;;;;;;23.69;77.81;97943.50;7394821;19;20485;-62
2023/12/28 13:31:12;;;;;;;1.30;0.88;;;;;;;21.79;89.31;97941.03;7394703;19;20022;-62
2023/12/28 13:33:38;;;;;;;0.38;0.38;;;;;;;19.88;100.00;97929.28;7399411;19;20011;-62
2023/12/28 13:36:04;;;;;;;1.00;0.73;;;;;;;20.84;98.91;97933.25;7393075;19;20029;-62
2023/12/28 13:38:30;;;;;;;2.40;0.10;;;;;;;23.16;93.26;97932.84;7395475;19;20018;-62
2023/12/28 13:40:56;;;;;;;5.00;0.63;;;;;;;27.11;70.79;97910.72;7394688;19;20007;-62
2023/12/28 13:43:23;;;;;;;0.55;0.45;;;;;;;27.45;66.68;97927.50;7397119;19;20023;-62
2023/12/28 13:45:49;;;;;;;8.25;0.55;;;;;;;27.85;63.29;97919.44;7394611;19;20022;-62
2023/12/28 13:48:15;;;;;;;3.88;1.23;;;;;;;29.38;56.99;97923.56;7394784;19;20017;-62
2023/12/28 13:50:41;;;;;;;0.85;0.28;;;;;;;29.31;55.68;97919.69;7394623;19;20011;-62
2023/12/28 13:53:08;;;;;;;0.38;0.35;;;;;;;30.37;51.61;97919.69;7394672;19;20474;-61